createdAt,value
2023-04-22T00:01:25.524Z,10.50
2023-04-22T00:03:53.660Z,10.45
2023-04-22T00:06:21.935Z,12.25
2023-04-22T00:08:49.953Z,11.98
2023-04-22T00:11:17.722Z,12.48
2023-04-22T00:13:45.687Z,13.65
2023-04-22T00:16:13.444Z,12.60
2023-04-22T00:18:42.172Z,13.38
2023-04-22T00:21:09.918Z,13.93
2023-04-22T00:23:37.711Z,13.30
2023-04-22T00:26:06.088Z,14.63
2023-04-22T00:28:33.910Z,14.18
2023-04-22T00:31:03.502Z,12.55
2023-04-22T00:33:32.141Z,13.50
2023-04-22T00:36:03.030Z,12.15
2023-04-22T00:38:31.806Z,11.80
2023-04-22T00:41:00.865Z,11.88
2023-04-22T00:43:29.026Z,12.40
2023-04-22T00:45:58.573Z,12.10
2023-04-22T00:48:28.797Z,9.95
2023-04-22T00:50:56.763Z,10.63
2023-04-22T00:53:25.064Z,10.70
2023-04-22T00:55:52.745Z,10.65
2023-04-22T00:58:23.827Z,10.63
2023-04-22T01:00:52.617Z,9.15
2023-04-22T01:03:22.543Z,9.50
2023-04-22T01:05:51.104Z,8.90
2023-04-22T01:08:18.922Z,9.90
2023-04-22T01:10:46.704Z,8.77
2023-04-22T01:13:14.477Z,8.88
2023-04-22T01:15:42.388Z,7.63
2023-04-22T01:18:10.590Z,8.73
2023-04-22T01:20:38.491Z,8.73
2023-04-22T01:23:22.924Z,9.07
2023-04-22T01:25:51.088Z,7.82
2023-04-22T01:28:18.980Z,8.63
2023-04-22T01:30:48.979Z,9.05
2023-04-22T01:33:17.629Z,8.73
2023-04-22T01:35:45.711Z,9.32
2023-04-22T01:38:14.478Z,8.35
2023-04-22T01:40:42.178Z,9.20
2023-04-22T01:43:10.036Z,9.45
2023-04-22T01:45:37.884Z,8.02
2023-04-22T01:48:07.523Z,8.13
2023-04-22T01:50:35.924Z,8.45
2023-04-22T01:53:04.679Z,7.78
2023-04-22T01:55:36.336Z,7.90
2023-04-22T01:58:05.503Z,8.20
2023-04-22T02:00:33.113Z,8.02
2023-04-22T02:03:01.183Z,8.18
2023-04-22T02:05:29.235Z,7.20
2023-04-22T02:07:57.145Z,7.20
2023-04-22T02:10:25.217Z,8.10
2023-04-22T02:12:52.866Z,7.28
2023-04-22T02:15:20.892Z,7.82
2023-04-22T02:17:49.511Z,7.22
2023-04-22T02:20:17.573Z,7.63
2023-04-22T02:22:46.048Z,7.18
2023-04-22T02:25:14.515Z,6.55
2023-04-22T02:27:43.396Z,6.90
2023-04-22T02:30:12.117Z,7.03
2023-04-22T02:32:40.543Z,6.63
2023-04-22T02:35:08.910Z,6.85
2023-04-22T02:37:36.768Z,7.15
2023-04-22T02:40:06.334Z,6.68
2023-04-22T02:42:34.264Z,7.13
2023-04-22T02:45:03.514Z,7.20
2023-04-22T02:47:31.334Z,6.18
2023-04-22T02:50:00.469Z,7.25
2023-04-22T02:52:29.337Z,7.03
2023-04-22T02:54:57.208Z,6.13
2023-04-22T02:57:25.322Z,7.20
2023-04-22T02:59:53.864Z,5.80
2023-04-22T03:02:23.130Z,6.45
2023-04-22T03:07:36.901Z,6.15
2023-04-22T03:10:05.411Z,7.05
2023-04-22T03:12:34.522Z,5.90
2023-04-22T03:15:03.424Z,6.72
2023-04-22T03:17:32.612Z,6.43
2023-04-22T03:20:02.874Z,5.80
2023-04-22T03:22:30.857Z,5.82
2023-04-22T03:25:01.500Z,6.15
2023-04-22T03:27:30.611Z,5.95
2023-04-22T03:29:58.275Z,5.68
2023-04-22T03:32:26.926Z,6.22
2023-04-22T03:35:12.709Z,5.90
2023-04-22T03:37:41.076Z,6.45
2023-04-22T03:40:13.571Z,5.93
2023-04-22T03:42:41.899Z,5.82
2023-04-22T03:45:10.167Z,5.38
2023-04-22T03:47:46.020Z,5.43
2023-04-22T03:50:22.522Z,5.65
2023-04-22T03:52:53.171Z,5.55
2023-04-22T03:55:22.486Z,6.18
2023-04-22T03:57:52.909Z,5.55
2023-04-22T04:00:21.221Z,5.13
2023-04-22T04:03:24.620Z,5.63
2023-04-22T04:05:54.279Z,5.78
2023-04-22T04:08:22.837Z,5.40
2023-04-22T04:10:50.739Z,5.63
2023-04-22T04:13:18.502Z,5.50
2023-04-22T04:16:12.282Z,5.03
2023-04-22T04:18:45.163Z,5.93
2023-04-22T04:21:13.744Z,5.50
2023-04-22T04:23:48.338Z,5.05
2023-04-22T04:26:18.758Z,5.97
2023-04-22T04:28:50.338Z,5.40
2023-04-22T04:31:21.739Z,5.50
2023-04-22T04:33:49.623Z,5.30
2023-04-22T04:36:17.421Z,5.50
2023-04-22T04:38:45.108Z,4.90
2023-04-22T04:41:14.652Z,4.97
2023-04-22T04:43:42.817Z,5.45
2023-04-22T04:46:21.138Z,5.35
2023-04-22T04:48:50.938Z,5.15
2023-04-22T04:51:20.512Z,5.55
2023-04-22T04:53:56.121Z,5.78
2023-04-22T04:56:26.319Z,5.47
2023-04-22T04:58:54.875Z,5.03
2023-04-22T05:01:25.789Z,5.82
2023-04-22T05:03:54.565Z,5.07
2023-04-22T05:06:22.516Z,5.13
2023-04-22T05:08:55.738Z,5.55
2023-04-22T05:11:24.280Z,5.13
2023-04-22T05:13:55.719Z,4.82
2023-04-22T05:16:30.662Z,4.88
2023-04-22T05:19:01.899Z,5.10
2023-04-22T05:21:29.860Z,5.55
2023-04-22T05:23:57.693Z,5.55
2023-04-22T05:26:26.468Z,5.68
2023-04-22T05:28:54.737Z,4.90
2023-04-22T05:31:23.084Z,5.00
2023-04-22T05:33:52.070Z,5.15
2023-04-22T05:36:23.864Z,5.60
2023-04-22T05:38:51.544Z,4.95
2023-04-22T05:41:22.370Z,4.68
2023-04-22T05:43:50.266Z,4.78
2023-04-22T05:46:20.619Z,4.72
2023-04-22T05:48:49.486Z,4.97
2023-04-22T05:51:35.596Z,5.32
2023-04-22T05:54:03.630Z,4.53
2023-04-22T05:56:31.513Z,4.90
2023-04-22T05:58:59.180Z,4.57
2023-04-22T06:01:27.652Z,5.57
2023-04-22T06:04:10.498Z,4.55
2023-04-22T06:06:38.647Z,4.18
2023-04-22T06:09:07.538Z,4.90
2023-04-22T06:11:35.188Z,4.93
2023-04-22T06:14:02.692Z,5.00
2023-04-22T06:16:31.515Z,5.00
2023-04-22T06:18:59.521Z,5.18
2023-04-22T06:21:27.505Z,4.60
2023-04-22T06:23:57.197Z,4.78
2023-04-22T06:26:24.898Z,4.63
2023-04-22T06:28:52.682Z,5.15
2023-04-22T06:31:21.496Z,4.78
2023-04-22T06:33:49.722Z,4.57
2023-04-22T06:36:19.059Z,5.25
2023-04-22T06:38:53.227Z,3.97
2023-04-22T06:41:41.516Z,4.43
2023-04-22T06:44:30.183Z,5.30
2023-04-22T06:47:18.020Z,4.90
2023-04-22T06:49:54.064Z,4.47
2023-04-22T06:52:25.838Z,4.28
2023-04-22T06:55:00.040Z,4.18
2023-04-22T06:57:27.826Z,4.43
2023-04-22T06:59:55.977Z,4.90
2023-04-22T07:02:26.354Z,4.45
2023-04-22T07:04:54.242Z,4.90
2023-04-22T07:07:21.915Z,4.80
2023-04-22T07:09:49.862Z,4.63
2023-04-22T07:12:17.489Z,4.30
2023-04-22T07:14:45.917Z,4.60
2023-04-22T07:17:13.798Z,5.10
2023-04-22T07:19:41.785Z,4.53
2023-04-22T07:22:09.660Z,4.53
2023-04-22T07:24:37.724Z,4.80
2023-04-22T07:27:05.363Z,4.50
2023-04-22T07:29:32.948Z,4.85
2023-04-22T07:32:00.709Z,4.75
2023-04-22T07:34:30.235Z,4.32
2023-04-22T07:36:58.109Z,4.15
2023-04-22T07:39:26.113Z,3.83
2023-04-22T07:41:54.061Z,4.47
2023-04-22T07:44:21.828Z,4.68
2023-04-22T07:46:50.749Z,3.80
2023-04-22T07:49:18.475Z,4.38
2023-04-22T07:51:46.520Z,4.15
2023-04-22T07:54:14.216Z,4.55
2023-04-22T07:56:41.871Z,5.03
2023-04-22T07:59:09.471Z,4.35
2023-04-22T08:01:37.198Z,5.10
2023-04-22T08:04:05.008Z,4.30
2023-04-22T08:06:33.055Z,4.07
2023-04-22T08:09:00.980Z,5.03
2023-04-22T08:11:28.823Z,4.00
2023-04-22T08:13:56.588Z,4.18
2023-04-22T08:16:24.307Z,4.85
2023-04-22T08:18:52.447Z,5.07
2023-04-22T08:21:20.154Z,4.13
2023-04-22T08:23:48.071Z,4.10
2023-04-22T08:26:17.058Z,4.13
2023-04-22T08:28:44.834Z,4.03
2023-04-22T08:31:13.298Z,4.35
2023-04-22T08:33:42.226Z,4.43
2023-04-22T08:36:11.404Z,4.57
2023-04-22T08:38:39.060Z,4.90
2023-04-22T08:41:07.592Z,4.47
2023-04-22T08:43:35.915Z,4.13
2023-04-22T08:46:03.641Z,4.72
2023-04-22T08:48:32.675Z,4.95
2023-04-22T08:51:00.989Z,4.50
2023-04-22T08:53:28.894Z,4.40
2023-04-22T08:55:57.682Z,4.63
2023-04-22T08:58:25.928Z,5.28
2023-04-22T09:00:54.763Z,5.28
2023-04-22T09:03:23.462Z,5.47
2023-04-22T09:05:55.206Z,5.20
2023-04-22T09:08:23.159Z,5.25
2023-04-22T09:10:51.250Z,5.05
2023-04-22T09:13:19.581Z,4.93
2023-04-22T09:15:48.046Z,5.35
2023-04-22T09:18:21.677Z,4.85
2023-04-22T09:20:54.577Z,5.47
2023-04-22T09:23:22.895Z,5.15
2023-04-22T09:25:53.317Z,5.18
2023-04-22T09:28:21.342Z,5.45
2023-04-22T09:30:49.164Z,5.30
2023-04-22T09:33:17.820Z,5.10
2023-04-22T09:35:45.763Z,4.50
2023-04-22T09:38:14.453Z,5.00
2023-04-22T09:40:44.848Z,5.32
2023-04-22T09:43:13.309Z,5.10
2023-04-22T09:45:43.093Z,5.10
2023-04-22T09:48:19.915Z,4.50
2023-04-22T09:50:51.720Z,4.25
2023-04-22T09:53:21.820Z,4.00
2023-04-22T09:55:53.090Z,4.45
2023-04-22T09:58:24.331Z,4.40
2023-04-22T10:00:57.223Z,4.47
2023-04-22T10:03:25.316Z,4.45
2023-04-22T10:05:53.778Z,4.53
2023-04-22T10:08:21.638Z,3.83
2023-04-22T10:10:49.744Z,4.18
2023-04-22T10:13:18.288Z,4.05
2023-04-22T10:15:56.197Z,4.50
2023-04-22T10:18:27.320Z,4.05
2023-04-22T10:20:58.179Z,4.22
2023-04-22T10:23:26.516Z,4.28
2023-04-22T10:25:56.530Z,4.22
2023-04-22T10:28:28.703Z,3.78
2023-04-22T10:30:57.092Z,3.78
2023-04-22T10:33:25.085Z,3.65
2023-04-22T10:36:18.109Z,4.78
2023-04-22T10:38:55.230Z,4.15
2023-04-22T10:41:30.746Z,3.30
2023-04-22T10:44:02.134Z,3.50
2023-04-22T10:46:38.025Z,4.43
2023-04-22T10:49:18.974Z,3.63
2023-04-22T10:51:50.339Z,3.97
2023-04-22T10:54:32.626Z,4.43
2023-04-22T10:57:16.969Z,4.30
2023-04-22T11:00:35.673Z,4.00
2023-04-22T11:03:15.888Z,4.15
2023-04-22T11:05:44.576Z,3.60
2023-04-22T11:08:21.528Z,3.78
2023-04-22T11:10:51.997Z,3.17
2023-04-22T11:13:22.154Z,4.10
2023-04-22T11:15:55.031Z,3.75
2023-04-22T11:18:27.705Z,3.35
2023-04-22T11:20:55.998Z,3.40
2023-04-22T11:23:30.516Z,3.55
2023-04-22T11:26:07.526Z,2.75
2023-04-22T11:28:35.168Z,2.72
2023-04-22T11:31:10.575Z,2.90
2023-04-22T11:33:39.523Z,2.85
2023-04-22T11:36:12.261Z,3.05
2023-04-22T11:38:40.369Z,3.63
2023-04-22T11:41:08.109Z,3.55
2023-04-22T11:43:46.912Z,2.63
2023-04-22T11:46:15.130Z,2.67
2023-04-22T11:48:43.356Z,2.95
2023-04-22T11:51:13.195Z,3.15
2023-04-22T11:53:51.821Z,2.70
2023-04-22T11:56:21.358Z,2.58
2023-04-22T11:58:49.128Z,2.47
2023-04-22T12:01:18.632Z,3.20
2023-04-22T12:03:48.590Z,2.60
2023-04-22T12:06:17.474Z,3.05
2023-04-22T12:08:47.787Z,2.80
2023-04-22T12:11:16.087Z,2.70
2023-04-22T12:13:48.449Z,2.40
2023-04-22T12:16:19.762Z,2.72
2023-04-22T12:18:53.612Z,2.50
2023-04-22T12:21:25.157Z,2.20
2023-04-22T12:23:59.375Z,2.90
2023-04-22T12:26:28.863Z,2.80
2023-04-22T12:29:00.099Z,1.95
2023-04-22T12:31:28.815Z,2.42
2023-04-22T12:33:57.518Z,2.85
2023-04-22T12:36:26.955Z,2.40
2023-04-22T12:38:55.210Z,2.03
2023-04-22T12:41:24.179Z,2.80
2023-04-22T12:43:52.894Z,2.63
2023-04-22T12:46:21.574Z,2.45
2023-04-22T12:48:49.482Z,2.38
2023-04-22T12:51:17.443Z,2.15
2023-04-22T12:53:45.555Z,2.10
2023-04-22T12:56:13.957Z,2.88
2023-04-22T12:58:41.616Z,2.10
2023-04-22T13:01:09.648Z,1.92
2023-04-22T13:03:37.332Z,2.30
2023-04-22T13:06:05.150Z,2.40
2023-04-22T13:08:32.962Z,2.42
2023-04-22T13:11:00.883Z,2.85
2023-04-22T13:13:30.070Z,2.50
2023-04-22T13:15:58.723Z,2.35
2023-04-22T13:18:26.805Z,2.20
2023-04-22T13:20:58.416Z,2.60
2023-04-22T13:23:27.329Z,2.33
2023-04-22T13:25:54.946Z,2.03
2023-04-22T13:28:23.173Z,2.30
2023-04-22T13:30:51.938Z,2.92
2023-04-22T13:33:19.817Z,2.97
2023-04-22T13:35:47.643Z,2.30
2023-04-22T13:38:15.171Z,2.17
2023-04-22T13:40:45.864Z,2.22
2023-04-22T13:43:13.645Z,2.20
2023-04-22T13:45:42.690Z,2.20
2023-04-22T13:48:10.297Z,2.00
2023-04-22T13:50:38.062Z,2.20
2023-04-22T13:53:10.038Z,1.92
2023-04-22T13:55:38.868Z,2.10
2023-04-22T13:58:07.943Z,2.10
2023-04-22T14:00:36.312Z,2.58
2023-04-22T14:03:04.017Z,2.22
2023-04-22T14:05:31.744Z,2.10
2023-04-22T14:08:00.550Z,1.92
2023-04-22T14:10:28.862Z,2.05
2023-04-22T14:12:56.667Z,2.35
2023-04-22T14:15:25.342Z,2.22
2023-04-22T14:17:54.411Z,2.80
2023-04-22T14:20:27.494Z,2.65
2023-04-22T14:22:55.289Z,2.78
2023-04-22T14:25:23.322Z,2.38
2023-04-22T14:27:51.192Z,2.45
2023-04-22T14:30:20.855Z,2.95
2023-04-22T14:32:49.659Z,2.60
2023-04-22T14:35:18.630Z,2.38
2023-04-22T14:37:46.470Z,2.67
2023-04-22T14:40:14.791Z,3.33
2023-04-22T14:42:42.732Z,3.00
2023-04-22T14:45:11.201Z,2.58
2023-04-22T14:47:40.264Z,2.42
2023-04-22T14:50:08.373Z,2.83
2023-04-22T14:52:36.272Z,2.85
2023-04-22T14:55:15.475Z,3.00
2023-04-22T14:57:58.306Z,2.42
2023-04-22T15:00:27.308Z,2.35
2023-04-22T15:02:56.391Z,2.95
2023-04-22T15:05:24.354Z,3.20
2023-04-22T15:07:52.231Z,2.83
2023-04-22T15:10:20.388Z,2.78
2023-04-22T15:12:53.435Z,2.90
2023-04-22T15:15:21.271Z,3.15
2023-04-22T15:17:49.007Z,2.92
2023-04-22T15:20:16.852Z,2.30
2023-04-22T15:22:45.396Z,2.90
2023-04-22T15:25:15.496Z,2.75
2023-04-22T15:27:44.402Z,2.70
2023-04-22T15:30:12.660Z,2.97
2023-04-22T15:32:40.301Z,2.95
2023-04-22T15:35:09.347Z,2.63
2023-04-22T15:37:37.562Z,2.78
2023-04-22T15:40:08.890Z,2.60
2023-04-22T15:42:36.670Z,2.42
2023-04-22T15:45:04.881Z,2.55
2023-04-22T15:47:34.080Z,2.40
2023-04-22T15:50:09.512Z,2.28
2023-04-22T15:52:39.048Z,2.67
2023-04-22T15:55:08.631Z,2.80
2023-04-22T15:57:36.996Z,3.13
2023-04-22T16:00:13.377Z,3.00
2023-04-22T16:02:43.517Z,2.25
2023-04-22T16:05:12.231Z,2.22
2023-04-22T16:07:40.453Z,2.63
2023-04-22T16:10:09.446Z,2.75
2023-04-22T16:12:37.017Z,2.35
2023-04-22T16:15:05.389Z,2.35
2023-04-22T16:17:33.267Z,2.45
2023-04-22T16:20:01.712Z,2.63
2023-04-22T16:22:29.817Z,2.78
2023-04-22T16:24:57.632Z,2.83
2023-04-22T16:27:25.987Z,2.28
2023-04-22T16:29:53.864Z,2.75
2023-04-22T16:32:22.043Z,2.53
2023-04-22T16:34:49.991Z,2.17
2023-04-22T16:37:17.847Z,2.22
2023-04-22T16:39:46.546Z,2.80
2023-04-22T16:42:14.364Z,2.60
2023-04-22T16:44:42.329Z,2.55
2023-04-22T16:47:09.890Z,2.40
2023-04-22T16:49:37.942Z,2.08
2023-04-22T16:52:06.381Z,2.45
2023-04-22T16:54:34.297Z,2.90
2023-04-22T16:57:02.262Z,2.58
2023-04-22T16:59:30.188Z,2.90
2023-04-22T17:01:57.902Z,3.45
2023-04-22T17:04:25.892Z,2.92
2023-04-22T17:06:54.107Z,3.88
2023-04-22T17:09:22.138Z,3.75
2023-04-22T17:11:50.123Z,3.53
2023-04-22T17:14:17.903Z,3.53
2023-04-22T17:16:45.849Z,3.50
2023-04-22T17:19:13.501Z,4.13
2023-04-22T17:21:41.409Z,3.50
2023-04-22T17:24:09.144Z,3.72
2023-04-22T17:26:37.473Z,3.80
2023-04-22T17:29:05.095Z,4.28
2023-04-22T17:31:33.739Z,3.80
2023-04-22T17:34:01.589Z,4.18
2023-04-22T17:36:29.440Z,3.78
2023-04-22T17:38:57.067Z,3.65
2023-04-22T17:41:25.211Z,3.83
2023-04-22T17:43:53.091Z,3.47
2023-04-22T17:46:21.443Z,4.68
2023-04-22T17:48:49.416Z,3.25
2023-04-22T17:51:17.189Z,3.70
2023-04-22T17:53:44.713Z,4.30
2023-04-22T17:56:12.439Z,3.28
2023-04-22T17:58:39.931Z,3.95
2023-04-22T18:01:08.442Z,4.10
2023-04-22T18:03:36.838Z,3.13
2023-04-22T18:06:04.820Z,4.28
2023-04-22T18:08:32.582Z,3.20
2023-04-22T18:11:02.340Z,3.05
2023-04-22T18:13:30.475Z,3.42
2023-04-22T18:15:58.647Z,3.85
2023-04-22T18:18:26.707Z,3.88
2023-04-22T18:20:55.039Z,3.65
2023-04-22T18:23:23.661Z,3.38
2023-04-22T18:25:51.470Z,3.67
2023-04-22T18:28:19.168Z,3.58
2023-04-22T18:30:47.859Z,4.20
2023-04-22T18:33:15.883Z,3.70
2023-04-22T18:35:43.549Z,4.85
2023-04-22T18:38:11.569Z,3.35
2023-04-22T18:40:39.181Z,3.75
2023-04-22T18:43:06.987Z,4.18
2023-04-22T18:45:34.874Z,4.07
2023-04-22T18:48:03.007Z,3.20
2023-04-22T18:50:30.975Z,3.75
2023-04-22T18:52:58.945Z,3.30
2023-04-22T18:55:26.877Z,4.05
2023-04-22T18:57:54.643Z,3.47
2023-04-22T19:00:22.511Z,4.45
2023-04-22T19:02:50.778Z,4.90
2023-04-22T19:05:18.736Z,3.78
2023-04-22T19:07:46.517Z,4.10
2023-04-22T19:10:14.380Z,4.43
2023-04-22T19:12:42.093Z,3.85
2023-04-22T19:15:10.288Z,3.53
2023-04-22T19:17:38.982Z,3.92
2023-04-22T19:20:08.658Z,3.65
2023-04-22T19:22:36.805Z,3.40
2023-04-22T19:25:06.624Z,3.92
2023-04-22T19:27:34.881Z,3.60
2023-04-22T19:30:03.289Z,3.42
2023-04-22T19:32:33.349Z,3.42
2023-04-22T19:35:03.269Z,3.78
2023-04-22T19:37:32.464Z,3.58
2023-04-22T19:40:00.436Z,3.88
2023-04-22T19:42:28.871Z,4.15
2023-04-22T19:44:59.269Z,4.45
2023-04-22T19:47:27.499Z,3.95
2023-04-22T19:49:55.507Z,3.83
2023-04-22T19:52:25.134Z,4.47
2023-04-22T19:54:56.604Z,4.20
2023-04-22T19:57:25.127Z,4.78
2023-04-22T19:59:54.869Z,4.53
2023-04-22T20:02:24.100Z,3.97
2023-04-22T20:04:52.221Z,3.60
2023-04-22T20:07:20.567Z,3.85
2023-04-22T20:09:50.570Z,3.78
2023-04-22T20:12:19.106Z,3.72
2023-04-22T20:14:47.427Z,3.70
2023-04-22T20:17:18.656Z,4.10
2023-04-22T20:19:46.640Z,3.88
2023-04-22T20:22:18.168Z,4.10
2023-04-22T20:24:48.772Z,4.15
2023-04-22T20:27:17.623Z,3.95
2023-04-22T20:29:46.697Z,4.18
2023-04-22T20:32:15.133Z,3.28
2023-04-22T20:34:43.756Z,3.78
2023-04-22T20:37:14.313Z,3.38
2023-04-22T20:39:44.741Z,3.92
2023-04-22T20:42:14.329Z,3.47
2023-04-22T20:44:42.572Z,4.07
2023-04-22T20:47:11.603Z,4.07
2023-04-22T20:49:40.961Z,4.28
2023-04-22T20:52:12.354Z,3.38
2023-04-22T20:54:41.878Z,3.58
2023-04-22T20:57:10.467Z,3.70
2023-04-22T20:59:38.153Z,3.28
2023-04-22T21:02:07.192Z,4.82
2023-04-22T21:04:35.817Z,5.90
2023-04-22T21:07:07.367Z,5.65
2023-04-22T21:09:35.361Z,4.75
2023-04-22T21:12:03.985Z,5.93
2023-04-22T21:14:31.873Z,4.97
2023-04-22T21:17:05.442Z,5.13
2023-04-22T21:19:34.915Z,5.63
2023-04-22T21:22:06.807Z,4.95
2023-04-22T21:24:35.975Z,4.88
2023-04-22T21:27:04.136Z,5.18
2023-04-22T21:29:32.894Z,5.20
2023-04-22T21:32:08.892Z,4.65
2023-04-22T21:34:38.140Z,4.60
2023-04-22T21:37:07.441Z,3.67
2023-04-22T21:39:35.380Z,4.10
2023-04-22T21:42:06.216Z,4.30
2023-04-22T21:44:37.578Z,3.83
2023-04-22T21:47:06.893Z,4.30
2023-04-22T21:49:34.658Z,4.95
2023-04-22T21:52:02.649Z,4.55
2023-04-22T21:54:30.994Z,4.32
2023-04-22T21:56:58.923Z,4.15
2023-04-22T21:59:26.983Z,4.00
2023-04-22T22:01:54.832Z,4.15
2023-04-22T22:04:22.849Z,4.00
2023-04-22T22:06:50.997Z,4.30
2023-04-22T22:09:19.392Z,4.13
2023-04-22T22:11:47.537Z,3.75
2023-04-22T22:14:15.460Z,4.43
2023-04-22T22:16:44.088Z,3.80
2023-04-22T22:19:12.608Z,3.67
2023-04-22T22:21:40.368Z,3.53
2023-04-22T22:24:09.663Z,3.13
2023-04-22T22:26:37.734Z,3.30
2023-04-22T22:29:05.702Z,4.28
2023-04-22T22:31:33.535Z,4.13
2023-04-22T22:34:01.119Z,3.83
2023-04-22T22:36:28.819Z,4.20
2023-04-22T22:38:56.357Z,3.97
2023-04-22T22:41:24.349Z,3.97
2023-04-22T22:43:52.113Z,3.70
2023-04-22T22:46:20.099Z,4.00
2023-04-22T22:48:48.714Z,3.92
2023-04-22T22:51:18.542Z,3.92
2023-04-22T22:53:46.683Z,3.22
2023-04-22T22:56:15.618Z,4.10
2023-04-22T22:58:43.379Z,3.50
2023-04-22T23:01:11.217Z,3.78
2023-04-22T23:03:39.138Z,3.22
2023-04-22T23:06:08.208Z,2.78
2023-04-22T23:08:36.141Z,3.30
2023-04-22T23:11:03.846Z,3.15
2023-04-22T23:13:31.475Z,3.40
2023-04-22T23:15:59.151Z,3.47
2023-04-22T23:18:27.454Z,4.72
2023-04-22T23:20:56.354Z,4.35
2023-04-22T23:23:24.434Z,4.93
2023-04-22T23:25:52.510Z,5.45
2023-04-22T23:28:20.644Z,5.63
2023-04-22T23:30:51.433Z,6.05
2023-04-22T23:33:24.717Z,6.07
2023-04-22T23:35:53.704Z,6.07
2023-04-22T23:38:21.783Z,7.78
2023-04-22T23:40:49.425Z,7.15
2023-04-22T23:43:17.098Z,8.05
2023-04-22T23:45:45.661Z,8.27
2023-04-22T23:48:13.371Z,7.80
2023-04-22T23:50:41.658Z,6.82
2023-04-22T23:53:09.699Z,7.55
2023-04-22T23:55:37.753Z,6.78
2023-04-22T23:58:05.527Z,7.53
